Webcams

Webcam1&2        Webcam1 (Zeitraffer 2 Std.)        Webcam2 (Zeitraffer 2 Std.)

Webcam1 - Zeitraffer (die letzten zwei Stunden, Intervall: 10min)
cam1--20170922_131958M
cam1--20170922_132959M
cam1--20170922_133959M
cam1--20170922_134959M
cam1--20170922_135959M
cam1--20170922_140958M
cam1--20170922_141958M
cam1--20170922_142958M
cam1--20170922_143959M
cam1--20170922_144959M
cam1--20170922_145959M
cam1--20170922_150958M
cam1--20170922_151959M
01/13 
start stop bwd fwd

Webcam1 - Aktuell

Lokale Serverzeit 15:20 | 22.09.2017
Webcam-Lageplan

Flugwetter

[source: ADDS]
METAR
LOWL 221250Z VRB02KT 9999 FEW060 BKN090 15/09 Q1021 NOSIG =
TAF
TAF LOWL 221115Z 2212/2312 30003KT 9999 SCT060 BKN090 TX16/2312Z TN08/2305Z TEMPO 2212/2218 -RA FEW040 BKN060 BECMG 2300/2302 VRB01KT 3000 BR BKN004 PROB30 TEMPO 2303/2307 0200 FG VV002 BECMG 2307/2309 30006KT 9999 NSW FEW020 BKN060 =